sensor_id;sensor_type;location;lat;lon;timestamp;temperature;humidity
23411;DHT22;11878;51.774;7.220;2022-08-27T00:02:17;18.10;99.90
23411;DHT22;11878;51.774;7.220;2022-08-27T00:05:20;17.90;99.90
23411;DHT22;11878;51.774;7.220;2022-08-27T00:08:21;18.00;99.90
23411;DHT22;11878;51.774;7.220;2022-08-27T00:11:23;18.10;99.90
23411;DHT22;11878;51.774;7.220;2022-08-27T00:14:27;18.10;99.90
23411;DHT22;11878;51.774;7.220;2022-08-27T00:17:29;18.00;99.90
23411;DHT22;11878;51.774;7.220;2022-08-27T00:20:30;18.00;99.90
23411;DHT22;11878;51.774;7.220;2022-08-27T00:23:33;18.00;99.90
23411;DHT22;11878;51.774;7.220;2022-08-27T00:26:35;18.10;99.90
23411;DHT22;11878;51.774;7.220;2022-08-27T00:29:43;18.00;99.90
23411;DHT22;11878;51.774;7.220;2022-08-27T00:32:45;18.00;99.90
23411;DHT22;11878;51.774;7.220;2022-08-27T00:35:47;18.00;99.90
23411;DHT22;11878;51.774;7.220;2022-08-27T00:38:49;17.90;99.90
23411;DHT22;11878;51.774;7.220;2022-08-27T00:41:54;17.90;99.90
23411;DHT22;11878;51.774;7.220;2022-08-27T00:44:56;18.00;99.90
23411;DHT22;11878;51.774;7.220;2022-08-27T00:48:00;18.00;99.90
23411;DHT22;11878;51.774;7.220;2022-08-27T00:51:02;18.10;99.90
23411;DHT22;11878;51.774;7.220;2022-08-27T00:54:05;17.90;99.90
23411;DHT22;11878;51.774;7.220;2022-08-27T00:57:07;18.00;99.90
23411;DHT22;11878;51.774;7.220;2022-08-27T01:00:12;18.00;99.90
23411;DHT22;11878;51.774;7.220;2022-08-27T01:03:14;18.00;99.90
23411;DHT22;11878;51.774;7.220;2022-08-27T01:06:17;18.00;99.90
23411;DHT22;11878;51.774;7.220;2022-08-27T01:09:21;18.10;99.90
23411;DHT22;11878;51.774;7.220;2022-08-27T01:12:23;18.10;99.90
23411;DHT22;11878;51.774;7.220;2022-08-27T01:15:27;18.10;99.90
23411;DHT22;11878;51.774;7.220;2022-08-27T01:18:31;18.10;99.90
23411;DHT22;11878;51.774;7.220;2022-08-27T01:21:55;18.10;99.90
23411;DHT22;11878;51.774;7.220;2022-08-27T01:25:03;18.10;99.90
23411;DHT22;11878;51.774;7.220;2022-08-27T01:28:06;18.20;99.90
23411;DHT22;11878;51.774;7.220;2022-08-27T01:31:10;18.20;99.90
23411;DHT22;11878;51.774;7.220;2022-08-27T01:34:13;18.10;99.90
23411;DHT22;11878;51.774;7.220;2022-08-27T01:37:16;18.10;99.90
23411;DHT22;11878;51.774;7.220;2022-08-27T01:40:24;18.20;99.90
23411;DHT22;11878;51.774;7.220;2022-08-27T01:43:26;18.20;99.90
23411;DHT22;11878;51.774;7.220;2022-08-27T01:46:28;18.10;99.90
23411;DHT22;11878;51.774;7.220;2022-08-27T01:49:32;18.20;99.90
23411;DHT22;11878;51.774;7.220;2022-08-27T01:52:33;18.20;99.90
23411;DHT22;11878;51.774;7.220;2022-08-27T01:55:36;18.20;99.90
23411;DHT22;11878;51.774;7.220;2022-08-27T01:58:41;18.20;99.90
23411;DHT22;11878;51.774;7.220;2022-08-27T02:01:44;18.10;99.90
23411;DHT22;11878;51.774;7.220;2022-08-27T02:04:45;18.20;99.90
23411;DHT22;11878;51.774;7.220;2022-08-27T02:07:48;18.20;99.90
23411;DHT22;11878;51.774;7.220;2022-08-27T02:10:50;18.10;99.90
23411;DHT22;11878;51.774;7.220;2022-08-27T02:13:51;18.20;99.90
23411;DHT22;11878;51.774;7.220;2022-08-27T02:16:54;18.20;99.90
23411;DHT22;11878;51.774;7.220;2022-08-27T02:19:55;18.20;99.90
23411;DHT22;11878;51.774;7.220;2022-08-27T02:22:57;18.10;99.90
23411;DHT22;11878;51.774;7.220;2022-08-27T02:25:59;18.20;99.90
23411;DHT22;11878;51.774;7.220;2022-08-27T02:29:01;18.30;99.90
23411;DHT22;11878;51.774;7.220;2022-08-27T02:32:03;18.20;99.90
23411;DHT22;11878;51.774;7.220;2022-08-27T02:35:05;18.20;99.90
23411;DHT22;11878;51.774;7.220;2022-08-27T02:38:08;18.20;99.90
23411;DHT22;11878;51.774;7.220;2022-08-27T02:41:10;18.10;99.90
23411;DHT22;11878;51.774;7.220;2022-08-27T02:44:11;18.20;99.90
23411;DHT22;11878;51.774;7.220;2022-08-27T02:47:14;18.20;99.90
23411;DHT22;11878;51.774;7.220;2022-08-27T02:50:17;18.20;99.90
23411;DHT22;11878;51.774;7.220;2022-08-27T02:53:19;18.10;99.90
23411;DHT22;11878;51.774;7.220;2022-08-27T02:56:20;18.20;99.90
23411;DHT22;11878;51.774;7.220;2022-08-27T02:59:23;18.20;99.90
23411;DHT22;11878;51.774;7.220;2022-08-27T03:02:25;18.20;99.90
23411;DHT22;11878;51.774;7.220;2022-08-27T03:05:28;18.10;99.90
23411;DHT22;11878;51.774;7.220;2022-08-27T03:08:30;18.20;99.90
23411;DHT22;11878;51.774;7.220;2022-08-27T03:11:51;18.20;99.90
23411;DHT22;11878;51.774;7.220;2022-08-27T03:14:54;18.30;99.90
23411;DHT22;11878;51.774;7.220;2022-08-27T03:17:55;18.20;99.90
23411;DHT22;11878;51.774;7.220;2022-08-27T03:21:23;18.20;99.90
23411;DHT22;11878;51.774;7.220;2022-08-27T03:24:25;18.20;99.90
23411;DHT22;11878;51.774;7.220;2022-08-27T03:27:27;18.20;99.90
23411;DHT22;11878;51.774;7.220;2022-08-27T03:30:29;18.20;99.90
23411;DHT22;11878;51.774;7.220;2022-08-27T03:33:36;18.20;99.90
23411;DHT22;11878;51.774;7.220;2022-08-27T03:36:38;18.10;99.90
23411;DHT22;11878;51.774;7.220;2022-08-27T03:39:40;18.10;99.90
23411;DHT22;11878;51.774;7.220;2022-08-27T03:42:42;18.20;99.90
23411;DHT22;11878;51.774;7.220;2022-08-27T03:45:44;18.10;99.90
23411;DHT22;11878;51.774;7.220;2022-08-27T03:49:03;18.00;99.90
23411;DHT22;11878;51.774;7.220;2022-08-27T03:52:05;18.10;99.90
23411;DHT22;11878;51.774;7.220;2022-08-27T03:55:07;18.10;99.90
23411;DHT22;11878;51.774;7.220;2022-08-27T03:58:10;18.00;99.90
23411;DHT22;11878;51.774;7.220;2022-08-27T04:01:12;18.10;99.90
23411;DHT22;11878;51.774;7.220;2022-08-27T04:04:14;18.10;99.90
23411;DHT22;11878;51.774;7.220;2022-08-27T04:07:16;18.00;99.90
23411;DHT22;11878;51.774;7.220;2022-08-27T04:10:18;18.10;99.90
23411;DHT22;11878;51.774;7.220;2022-08-27T04:13:21;18.00;99.90
23411;DHT22;11878;51.774;7.220;2022-08-27T04:16:23;18.10;99.90
23411;DHT22;11878;51.774;7.220;2022-08-27T04:19:26;18.00;99.90
23411;DHT22;11878;51.774;7.220;2022-08-27T04:22:30;18.10;99.90
23411;DHT22;11878;51.774;7.220;2022-08-27T04:25:32;18.10;99.90
23411;DHT22;11878;51.774;7.220;2022-08-27T04:28:34;18.10;99.90
23411;DHT22;11878;51.774;7.220;2022-08-27T04:31:39;18.10;99.90
23411;DHT22;11878;51.774;7.220;2022-08-27T04:34:41;18.10;99.90
23411;DHT22;11878;51.774;7.220;2022-08-27T04:37:43;18.00;99.90
23411;DHT22;11878;51.774;7.220;2022-08-27T04:40:45;17.90;99.90
23411;DHT22;11878;51.774;7.220;2022-08-27T04:44:07;18.00;99.90
23411;DHT22;11878;51.774;7.220;2022-08-27T04:47:09;18.00;99.90
23411;DHT22;11878;51.774;7.220;2022-08-27T04:50:11;18.00;99.90
23411;DHT22;11878;51.774;7.220;2022-08-27T04:53:15;18.00;99.90
23411;DHT22;11878;51.774;7.220;2022-08-27T04:56:19;18.00;99.90
23411;DHT22;11878;51.774;7.220;2022-08-27T04:59:24;18.00;99.90
23411;DHT22;11878;51.774;7.220;2022-08-27T05:02:26;18.10;99.90
23411;DHT22;11878;51.774;7.220;2022-08-27T05:05:28;18.00;99.90
23411;DHT22;11878;51.774;7.220;2022-08-27T05:08:30;18.00;99.90
23411;DHT22;11878;51.774;7.220;2022-08-27T05:11:32;18.10;99.90
23411;DHT22;11878;51.774;7.220;2022-08-27T05:14:35;18.00;99.90
23411;DHT22;11878;51.774;7.220;2022-08-27T05:17:37;18.00;99.90
23411;DHT22;11878;51.774;7.220;2022-08-27T05:20:45;18.00;99.90
23411;DHT22;11878;51.774;7.220;2022-08-27T05:23:48;18.10;99.90
23411;DHT22;11878;51.774;7.220;2022-08-27T05:26:51;18.00;99.90
23411;DHT22;11878;51.774;7.220;2022-08-27T05:29:53;17.90;99.90
23411;DHT22;11878;51.774;7.220;2022-08-27T05:32:55;18.00;99.90
23411;DHT22;11878;51.774;7.220;2022-08-27T05:35:58;18.10;99.90
23411;DHT22;11878;51.774;7.220;2022-08-27T05:39:04;18.10;99.90
23411;DHT22;11878;51.774;7.220;2022-08-27T05:42:06;18.00;99.90
23411;DHT22;11878;51.774;7.220;2022-08-27T05:45:08;18.10;99.90
23411;DHT22;11878;51.774;7.220;2022-08-27T05:48:15;18.10;99.90
23411;DHT22;11878;51.774;7.220;2022-08-27T05:51:23;18.00;99.90
23411;DHT22;11878;51.774;7.220;2022-08-27T05:54:26;18.00;99.90
23411;DHT22;11878;51.774;7.220;2022-08-27T05:57:28;18.00;99.90
23411;DHT22;11878;51.774;7.220;2022-08-27T06:00:29;17.90;99.90
23411;DHT22;11878;51.774;7.220;2022-08-27T06:03:50;18.00;99.90
23411;DHT22;11878;51.774;7.220;2022-08-27T06:06:53;18.00;99.90
23411;DHT22;11878;51.774;7.220;2022-08-27T06:09:55;18.00;99.90
23411;DHT22;11878;51.774;7.220;2022-08-27T06:13:00;18.00;99.90
23411;DHT22;11878;51.774;7.220;2022-08-27T06:16:12;18.10;99.90
23411;DHT22;11878;51.774;7.220;2022-08-27T06:19:14;18.10;99.90
23411;DHT22;11878;51.774;7.220;2022-08-27T06:22:16;18.20;99.90
23411;DHT22;11878;51.774;7.220;2022-08-27T06:25:18;18.20;99.90
23411;DHT22;11878;51.774;7.220;2022-08-27T06:28:21;18.20;99.90
23411;DHT22;11878;51.774;7.220;2022-08-27T06:31:25;18.20;99.90
23411;DHT22;11878;51.774;7.220;2022-08-27T06:34:27;18.30;99.90
23411;DHT22;11878;51.774;7.220;2022-08-27T06:37:29;18.30;99.90
23411;DHT22;11878;51.774;7.220;2022-08-27T06:40:31;18.40;99.90
23411;DHT22;11878;51.774;7.220;2022-08-27T06:43:38;18.40;99.90
23411;DHT22;11878;51.774;7.220;2022-08-27T06:46:42;18.40;99.90
23411;DHT22;11878;51.774;7.220;2022-08-27T06:49:44;18.50;99.90
23411;DHT22;11878;51.774;7.220;2022-08-27T06:52:47;18.50;99.90
23411;DHT22;11878;51.774;7.220;2022-08-27T06:55:48;18.60;99.90
23411;DHT22;11878;51.774;7.220;2022-08-27T06:58:53;18.50;99.90
23411;DHT22;11878;51.774;7.220;2022-08-27T07:01:56;18.50;99.90
23411;DHT22;11878;51.774;7.220;2022-08-27T07:04:57;18.60;99.90
23411;DHT22;11878;51.774;7.220;2022-08-27T07:08:00;18.70;99.90
23411;DHT22;11878;51.774;7.220;2022-08-27T07:11:02;18.80;99.90
23411;DHT22;11878;51.774;7.220;2022-08-27T07:14:06;18.80;99.90
23411;DHT22;11878;51.774;7.220;2022-08-27T07:17:08;18.70;99.90
23411;DHT22;11878;51.774;7.220;2022-08-27T07:20:12;18.80;99.90
23411;DHT22;11878;51.774;7.220;2022-08-27T07:23:14;18.70;99.90
23411;DHT22;11878;51.774;7.220;2022-08-27T07:26:17;18.70;99.90
23411;DHT22;11878;51.774;7.220;2022-08-27T07:29:19;18.80;99.90
23411;DHT22;11878;51.774;7.220;2022-08-27T07:32:21;18.70;99.90
23411;DHT22;11878;51.774;7.220;2022-08-27T07:35:31;18.70;99.90
23411;DHT22;11878;51.774;7.220;2022-08-27T07:38:34;18.70;99.90
23411;DHT22;11878;51.774;7.220;2022-08-27T07:41:36;18.70;99.90
23411;DHT22;11878;51.774;7.220;2022-08-27T07:44:58;18.90;99.90
23411;DHT22;11878;51.774;7.220;2022-08-27T07:47:59;19.10;99.90
23411;DHT22;11878;51.774;7.220;2022-08-27T07:51:02;19.30;99.90
23411;DHT22;11878;51.774;7.220;2022-08-27T07:54:05;19.50;99.90
23411;DHT22;11878;51.774;7.220;2022-08-27T07:57:08;19.40;99.90
23411;DHT22;11878;51.774;7.220;2022-08-27T08:00:10;19.50;99.90
23411;DHT22;11878;51.774;7.220;2022-08-27T08:03:13;19.60;99.90
23411;DHT22;11878;51.774;7.220;2022-08-27T08:06:15;19.70;99.90
23411;DHT22;11878;51.774;7.220;2022-08-27T08:09:18;19.60;99.90
23411;DHT22;11878;51.774;7.220;2022-08-27T08:12:20;20.00;99.90
23411;DHT22;11878;51.774;7.220;2022-08-27T08:15:27;19.90;99.90
23411;DHT22;11878;51.774;7.220;2022-08-27T08:18:29;20.00;99.90
23411;DHT22;11878;51.774;7.220;2022-08-27T08:21:31;20.10;99.90
23411;DHT22;11878;51.774;7.220;2022-08-27T08:24:34;20.10;99.90
23411;DHT22;11878;51.774;7.220;2022-08-27T08:27:36;20.40;99.90
23411;DHT22;11878;51.774;7.220;2022-08-27T08:30:41;20.20;99.90
23411;DHT22;11878;51.774;7.220;2022-08-27T08:33:44;20.10;99.90
23411;DHT22;11878;51.774;7.220;2022-08-27T08:36:48;19.90;99.90
23411;DHT22;11878;51.774;7.220;2022-08-27T08:39:55;19.70;99.90
23411;DHT22;11878;51.774;7.220;2022-08-27T08:42:57;19.40;99.90
23411;DHT22;11878;51.774;7.220;2022-08-27T08:46:11;19.70;99.90
23411;DHT22;11878;51.774;7.220;2022-08-27T08:55:55;20.30;99.70
23411;DHT22;11878;51.774;7.220;2022-08-27T08:59:06;20.50;99.50
23411;DHT22;11878;51.774;7.220;2022-08-27T09:02:11;20.60;99.00
23411;DHT22;11878;51.774;7.220;2022-08-27T09:05:15;20.60;99.00
23411;DHT22;11878;51.774;7.220;2022-08-27T09:08:31;21.00;96.90
23411;DHT22;11878;51.774;7.220;2022-08-27T09:11:54;21.30;94.70
23411;DHT22;11878;51.774;7.220;2022-08-27T09:15:18;21.40;95.50
23411;DHT22;11878;51.774;7.220;2022-08-27T09:18:20;21.50;95.00
23411;DHT22;11878;51.774;7.220;2022-08-27T09:21:39;21.60;94.70
23411;DHT22;11878;51.774;7.220;2022-08-27T09:25:17;21.30;95.10
23411;DHT22;11878;51.774;7.220;2022-08-27T09:28:27;21.50;94.80
23411;DHT22;11878;51.774;7.220;2022-08-27T09:31:54;21.50;93.90
23411;DHT22;11878;51.774;7.220;2022-08-27T09:34:59;21.50;94.00
23411;DHT22;11878;51.774;7.220;2022-08-27T09:38:01;21.40;94.00
23411;DHT22;11878;51.774;7.220;2022-08-27T09:41:11;21.60;94.30
23411;DHT22;11878;51.774;7.220;2022-08-27T09:44:17;21.40;93.70
23411;DHT22;11878;51.774;7.220;2022-08-27T09:47:19;21.20;94.70
23411;DHT22;11878;51.774;7.220;2022-08-27T09:50:27;21.10;95.00
23411;DHT22;11878;51.774;7.220;2022-08-27T09:53:53;21.00;94.30
23411;DHT22;11878;51.774;7.220;2022-08-27T09:56:53;21.10;95.00
23411;DHT22;11878;51.774;7.220;2022-08-27T09:59:55;21.10;94.50
23411;DHT22;11878;51.774;7.220;2022-08-27T10:02:59;21.00;94.10
23411;DHT22;11878;51.774;7.220;2022-08-27T10:06:02;21.00;94.30
23411;DHT22;11878;51.774;7.220;2022-08-27T10:09:17;21.00;94.80
23411;DHT22;11878;51.774;7.220;2022-08-27T10:12:28;20.80;94.90
23411;DHT22;11878;51.774;7.220;2022-08-27T10:22:23;21.20;95.00
23411;DHT22;11878;51.774;7.220;2022-08-27T10:35:11;21.00;94.30
23411;DHT22;11878;51.774;7.220;2022-08-27T10:38:21;21.30;93.60
23411;DHT22;11878;51.774;7.220;2022-08-27T10:41:37;21.20;92.80
23411;DHT22;11878;51.774;7.220;2022-08-27T10:48:28;21.10;94.00
23411;DHT22;11878;51.774;7.220;2022-08-27T10:51:43;21.20;93.20
23411;DHT22;11878;51.774;7.220;2022-08-27T11:02:34;21.20;92.60
23411;DHT22;11878;51.774;7.220;2022-08-27T11:05:44;21.40;92.20
23411;DHT22;11878;51.774;7.220;2022-08-27T11:09:20;21.40;91.90
23411;DHT22;11878;51.774;7.220;2022-08-27T11:12:28;21.70;90.20
23411;DHT22;11878;51.774;7.220;2022-08-27T11:15:39;21.70;90.90
23411;DHT22;11878;51.774;7.220;2022-08-27T11:22:10;21.80;90.70
23411;DHT22;11878;51.774;7.220;2022-08-27T11:25:33;21.90;88.40
23411;DHT22;11878;51.774;7.220;2022-08-27T11:28:46;21.80;88.10
23411;DHT22;11878;51.774;7.220;2022-08-27T11:32:21;21.50;87.40
23411;DHT22;11878;51.774;7.220;2022-08-27T11:35:48;21.50;86.60
23411;DHT22;11878;51.774;7.220;2022-08-27T11:38:59;21.90;87.90
23411;DHT22;11878;51.774;7.220;2022-08-27T11:42:15;21.80;84.50
23411;DHT22;11878;51.774;7.220;2022-08-27T11:45:29;22.10;86.20
23411;DHT22;11878;51.774;7.220;2022-08-27T11:48:41;22.30;87.20
23411;DHT22;11878;51.774;7.220;2022-08-27T11:51:43;22.60;83.40
23411;DHT22;11878;51.774;7.220;2022-08-27T11:54:49;22.50;83.00
23411;DHT22;11878;51.774;7.220;2022-08-27T12:01:29;22.10;83.70
23411;DHT22;11878;51.774;7.220;2022-08-27T12:04:34;22.20;82.90
23411;DHT22;11878;51.774;7.220;2022-08-27T12:07:38;21.80;83.90
23411;DHT22;11878;51.774;7.220;2022-08-27T12:10:53;21.90;85.30
23411;DHT22;11878;51.774;7.220;2022-08-27T12:17:47;21.90;86.80
23411;DHT22;11878;51.774;7.220;2022-08-27T12:21:05;21.80;86.50
23411;DHT22;11878;51.774;7.220;2022-08-27T12:27:33;21.80;87.60
23411;DHT22;11878;51.774;7.220;2022-08-27T12:30:36;21.70;86.30
23411;DHT22;11878;51.774;7.220;2022-08-27T12:33:41;21.50;87.30
23411;DHT22;11878;51.774;7.220;2022-08-27T12:36:47;21.70;87.30
23411;DHT22;11878;51.774;7.220;2022-08-27T12:39:51;21.90;87.00
23411;DHT22;11878;51.774;7.220;2022-08-27T12:43:16;22.00;85.90
23411;DHT22;11878;51.774;7.220;2022-08-27T12:46:18;22.00;85.00
23411;DHT22;11878;51.774;7.220;2022-08-27T12:49:25;22.00;85.30
23411;DHT22;11878;51.774;7.220;2022-08-27T12:53:08;21.90;87.70
23411;DHT22;11878;51.774;7.220;2022-08-27T13:03:35;21.80;86.20
23411;DHT22;11878;51.774;7.220;2022-08-27T13:06:43;21.50;86.90
23411;DHT22;11878;51.774;7.220;2022-08-27T13:09:45;21.70;87.50
23411;DHT22;11878;51.774;7.220;2022-08-27T13:12:58;21.80;84.90
23411;DHT22;11878;51.774;7.220;2022-08-27T13:16:01;21.90;85.20
23411;DHT22;11878;51.774;7.220;2022-08-27T13:19:05;22.00;85.20
23411;DHT22;11878;51.774;7.220;2022-08-27T13:22:07;22.20;84.00
23411;DHT22;11878;51.774;7.220;2022-08-27T13:28:25;22.20;84.10
23411;DHT22;11878;51.774;7.220;2022-08-27T13:31:30;22.20;81.40
23411;DHT22;11878;51.774;7.220;2022-08-27T13:34:36;22.20;80.50
23411;DHT22;11878;51.774;7.220;2022-08-27T13:37:50;22.30;82.10
23411;DHT22;11878;51.774;7.220;2022-08-27T13:41:03;22.30;81.00
23411;DHT22;11878;51.774;7.220;2022-08-27T13:44:11;22.50;80.60
23411;DHT22;11878;51.774;7.220;2022-08-27T13:47:21;22.60;79.60
23411;DHT22;11878;51.774;7.220;2022-08-27T13:50:26;22.40;80.40
23411;DHT22;11878;51.774;7.220;2022-08-27T13:53:30;22.30;80.00
23411;DHT22;11878;51.774;7.220;2022-08-27T13:56:58;22.10;80.60
23411;DHT22;11878;51.774;7.220;2022-08-27T14:00:15;22.00;81.20
23411;DHT22;11878;51.774;7.220;2022-08-27T14:03:33;22.10;80.80
23411;DHT22;11878;51.774;7.220;2022-08-27T14:06:41;22.30;81.80
23411;DHT22;11878;51.774;7.220;2022-08-27T14:09:50;22.30;79.70
23411;DHT22;11878;51.774;7.220;2022-08-27T14:13:04;22.30;80.30
23411;DHT22;11878;51.774;7.220;2022-08-27T14:16:29;22.20;79.20
23411;DHT22;11878;51.774;7.220;2022-08-27T14:19:32;22.40;80.10
23411;DHT22;11878;51.774;7.220;2022-08-27T14:22:37;22.60;79.70
23411;DHT22;11878;51.774;7.220;2022-08-27T14:25:40;22.70;78.40
23411;DHT22;11878;51.774;7.220;2022-08-27T14:28:42;22.90;76.90
23411;DHT22;11878;51.774;7.220;2022-08-27T14:31:44;22.60;78.10
23411;DHT22;11878;51.774;7.220;2022-08-27T14:34:46;22.90;79.70
23411;DHT22;11878;51.774;7.220;2022-08-27T14:37:49;22.70;78.30
23411;DHT22;11878;51.774;7.220;2022-08-27T14:40:52;22.40;78.90
23411;DHT22;11878;51.774;7.220;2022-08-27T14:43:55;22.30;80.70
23411;DHT22;11878;51.774;7.220;2022-08-27T14:46:57;22.60;80.00
23411;DHT22;11878;51.774;7.220;2022-08-27T14:50:00;22.40;79.10
23411;DHT22;11878;51.774;7.220;2022-08-27T14:53:03;22.30;79.70
23411;DHT22;11878;51.774;7.220;2022-08-27T14:56:04;22.30;80.10
23411;DHT22;11878;51.774;7.220;2022-08-27T14:59:07;22.10;81.60
23411;DHT22;11878;51.774;7.220;2022-08-27T15:02:10;21.90;83.10
23411;DHT22;11878;51.774;7.220;2022-08-27T15:05:16;21.80;83.10
23411;DHT22;11878;51.774;7.220;2022-08-27T15:08:18;21.70;82.80
23411;DHT22;11878;51.774;7.220;2022-08-27T15:11:26;22.00;83.90
23411;DHT22;11878;51.774;7.220;2022-08-27T15:14:31;21.80;82.80
23411;DHT22;11878;51.774;7.220;2022-08-27T15:17:34;21.80;83.40
23411;DHT22;11878;51.774;7.220;2022-08-27T15:20:36;21.90;84.30
23411;DHT22;11878;51.774;7.220;2022-08-27T15:23:38;21.90;82.80
23411;DHT22;11878;51.774;7.220;2022-08-27T15:26:40;22.00;82.80
23411;DHT22;11878;51.774;7.220;2022-08-27T15:29:42;22.10;84.00
23411;DHT22;11878;51.774;7.220;2022-08-27T15:32:46;22.00;83.60
23411;DHT22;11878;51.774;7.220;2022-08-27T15:35:48;22.10;82.50
23411;DHT22;11878;51.774;7.220;2022-08-27T15:38:50;22.00;82.40
23411;DHT22;11878;51.774;7.220;2022-08-27T15:41:52;22.00;82.90
23411;DHT22;11878;51.774;7.220;2022-08-27T15:45:12;22.00;81.80
23411;DHT22;11878;51.774;7.220;2022-08-27T15:48:13;21.90;82.10
23411;DHT22;11878;51.774;7.220;2022-08-27T15:51:16;21.90;82.50
23411;DHT22;11878;51.774;7.220;2022-08-27T15:54:22;21.90;82.70
23411;DHT22;11878;51.774;7.220;2022-08-27T15:57:24;22.00;82.70
23411;DHT22;11878;51.774;7.220;2022-08-27T16:00:27;21.90;82.90
23411;DHT22;11878;51.774;7.220;2022-08-27T16:03:31;21.90;84.40
23411;DHT22;11878;51.774;7.220;2022-08-27T16:06:36;21.80;84.70
23411;DHT22;11878;51.774;7.220;2022-08-27T16:09:39;21.90;84.50
23411;DHT22;11878;51.774;7.220;2022-08-27T16:12:41;21.80;84.20
23411;DHT22;11878;51.774;7.220;2022-08-27T16:15:43;21.70;83.90
23411;DHT22;11878;51.774;7.220;2022-08-27T16:18:45;21.70;84.50
23411;DHT22;11878;51.774;7.220;2022-08-27T16:21:46;21.70;85.20
23411;DHT22;11878;51.774;7.220;2022-08-27T16:24:49;21.70;84.40
23411;DHT22;11878;51.774;7.220;2022-08-27T16:27:51;21.60;84.30
23411;DHT22;11878;51.774;7.220;2022-08-27T16:30:55;21.70;84.90
23411;DHT22;11878;51.774;7.220;2022-08-27T16:33:58;21.60;83.20
23411;DHT22;11878;51.774;7.220;2022-08-27T16:37:00;21.70;85.60
23411;DHT22;11878;51.774;7.220;2022-08-27T16:40:02;21.60;84.00
23411;DHT22;11878;51.774;7.220;2022-08-27T16:43:04;21.60;84.30
23411;DHT22;11878;51.774;7.220;2022-08-27T16:46:06;21.60;84.80
23411;DHT22;11878;51.774;7.220;2022-08-27T16:49:08;21.60;84.90
23411;DHT22;11878;51.774;7.220;2022-08-27T16:52:28;21.50;85.30
23411;DHT22;11878;51.774;7.220;2022-08-27T16:55:30;21.40;85.00
23411;DHT22;11878;51.774;7.220;2022-08-27T16:58:33;21.30;85.20
23411;DHT22;11878;51.774;7.220;2022-08-27T17:01:35;20.70;86.20
23411;DHT22;11878;51.774;7.220;2022-08-27T17:04:37;21.40;85.70
23411;DHT22;11878;51.774;7.220;2022-08-27T17:07:43;21.40;86.00
23411;DHT22;11878;51.774;7.220;2022-08-27T17:10:53;21.40;86.90
23411;DHT22;11878;51.774;7.220;2022-08-27T17:13:58;21.40;86.50
23411;DHT22;11878;51.774;7.220;2022-08-27T17:17:00;21.40;86.30
23411;DHT22;11878;51.774;7.220;2022-08-27T17:20:02;21.30;86.10
23411;DHT22;11878;51.774;7.220;2022-08-27T17:23:05;21.30;87.20
23411;DHT22;11878;51.774;7.220;2022-08-27T17:26:09;21.20;87.20
23411;DHT22;11878;51.774;7.220;2022-08-27T17:29:11;21.30;86.80
23411;DHT22;11878;51.774;7.220;2022-08-27T17:32:13;21.30;87.60
23411;DHT22;11878;51.774;7.220;2022-08-27T17:35:15;21.20;86.60
23411;DHT22;11878;51.774;7.220;2022-08-27T17:38:16;21.20;87.10
23411;DHT22;11878;51.774;7.220;2022-08-27T17:41:33;21.20;87.00
23411;DHT22;11878;51.774;7.220;2022-08-27T17:44:38;21.20;86.60
23411;DHT22;11878;51.774;7.220;2022-08-27T17:47:40;21.20;86.40
23411;DHT22;11878;51.774;7.220;2022-08-27T17:50:42;21.20;87.50
23411;DHT22;11878;51.774;7.220;2022-08-27T17:53:47;21.10;87.30
23411;DHT22;11878;51.774;7.220;2022-08-27T17:56:49;21.10;87.70
23411;DHT22;11878;51.774;7.220;2022-08-27T17:59:51;21.10;88.20
23411;DHT22;11878;51.774;7.220;2022-08-27T18:02:54;21.00;87.70
23411;DHT22;11878;51.774;7.220;2022-08-27T18:05:55;21.00;88.00
23411;DHT22;11878;51.774;7.220;2022-08-27T18:08:57;21.00;87.80
23411;DHT22;11878;51.774;7.220;2022-08-27T18:11:59;21.00;87.70
23411;DHT22;11878;51.774;7.220;2022-08-27T18:15:09;21.00;88.70
23411;DHT22;11878;51.774;7.220;2022-08-27T18:18:15;21.00;89.50
23411;DHT22;11878;51.774;7.220;2022-08-27T18:21:17;21.00;90.00
23411;DHT22;11878;51.774;7.220;2022-08-27T18:24:26;20.90;88.70
23411;DHT22;11878;51.774;7.220;2022-08-27T18:27:31;20.90;89.60
23411;DHT22;11878;51.774;7.220;2022-08-27T18:30:33;20.80;90.30
23411;DHT22;11878;51.774;7.220;2022-08-27T18:33:36;20.80;89.70
23411;DHT22;11878;51.774;7.220;2022-08-27T18:36:38;20.80;90.20
23411;DHT22;11878;51.774;7.220;2022-08-27T18:39:39;20.80;90.10
23411;DHT22;11878;51.774;7.220;2022-08-27T18:42:43;20.80;90.30
23411;DHT22;11878;51.774;7.220;2022-08-27T18:45:45;20.70;90.90
23411;DHT22;11878;51.774;7.220;2022-08-27T18:48:47;20.70;91.70
23411;DHT22;11878;51.774;7.220;2022-08-27T18:51:48;20.70;91.80
23411;DHT22;11878;51.774;7.220;2022-08-27T18:54:53;20.70;91.70
23411;DHT22;11878;51.774;7.220;2022-08-27T18:57:55;20.60;91.70
23411;DHT22;11878;51.774;7.220;2022-08-27T19:01:00;20.60;92.00
23411;DHT22;11878;51.774;7.220;2022-08-27T19:04:03;20.60;92.20
23411;DHT22;11878;51.774;7.220;2022-08-27T19:07:05;20.60;91.80
23411;DHT22;11878;51.774;7.220;2022-08-27T19:10:07;20.00;92.00
23411;DHT22;11878;51.774;7.220;2022-08-27T19:13:11;20.50;92.30
23411;DHT22;11878;51.774;7.220;2022-08-27T19:19:29;20.40;91.40
23411;DHT22;11878;51.774;7.220;2022-08-27T19:22:32;20.50;91.60
23411;DHT22;11878;51.774;7.220;2022-08-27T19:25:34;20.40;90.90
23411;DHT22;11878;51.774;7.220;2022-08-27T19:28:41;20.40;90.40
23411;DHT22;11878;51.774;7.220;2022-08-27T19:31:45;20.50;90.70
23411;DHT22;11878;51.774;7.220;2022-08-27T19:34:47;20.50;90.50
23411;DHT22;11878;51.774;7.220;2022-08-27T19:37:49;20.40;90.50
23411;DHT22;11878;51.774;7.220;2022-08-27T19:40:54;20.40;90.70
23411;DHT22;11878;51.774;7.220;2022-08-27T19:43:55;20.40;90.90
23411;DHT22;11878;51.774;7.220;2022-08-27T19:46:57;20.40;90.80
23411;DHT22;11878;51.774;7.220;2022-08-27T19:50:02;20.30;90.50
23411;DHT22;11878;51.774;7.220;2022-08-27T19:53:04;20.40;90.60
23411;DHT22;11878;51.774;7.220;2022-08-27T19:56:07;20.30;90.00
23411;DHT22;11878;51.774;7.220;2022-08-27T19:59:16;20.30;90.40
23411;DHT22;11878;51.774;7.220;2022-08-27T20:02:22;20.20;90.60
23411;DHT22;11878;51.774;7.220;2022-08-27T20:05:24;20.20;90.40
23411;DHT22;11878;51.774;7.220;2022-08-27T20:08:26;20.20;90.40
23411;DHT22;11878;51.774;7.220;2022-08-27T20:11:28;20.10;90.50
23411;DHT22;11878;51.774;7.220;2022-08-27T20:14:30;20.10;90.60
23411;DHT22;11878;51.774;7.220;2022-08-27T20:17:32;20.10;90.60
23411;DHT22;11878;51.774;7.220;2022-08-27T20:20:34;20.10;90.80
23411;DHT22;11878;51.774;7.220;2022-08-27T20:23:36;20.10;91.20
23411;DHT22;11878;51.774;7.220;2022-08-27T20:26:38;20.00;90.70
23411;DHT22;11878;51.774;7.220;2022-08-27T20:29:39;19.90;91.00
23411;DHT22;11878;51.774;7.220;2022-08-27T20:32:42;19.90;91.30